Time;durP1;ratioP1;P1;durP2;ratioP2;P2;SDS_P1;SDS_P2;PMS_P1;PMS_P2;Temp;Humidity;BMP_temperature;BMP_pressure;BME280_temperature;BME280_humidity;BME280_pressure;Samples;Min_cycle;Max_cycle;Signal;HPM_P1;HPM_P2
2021/06/25 00:01:09;;;;;;;12.00;10.80;;;11.50;99.90;;;;;;5044508;28;20098;-78
2021/06/25 00:03:34;;;;;;;12.02;10.57;;;11.50;99.90;;;;;;5048323;28;20045;-79
2021/06/25 00:06:00;;;;;;;13.95;11.00;;;11.40;99.90;;;;;;5047116;28;20773;-78
2021/06/25 00:08:26;;;;;;;11.32;10.02;;;11.40;99.90;;;;;;5048643;28;20032;-79
2021/06/25 00:10:52;;;;;;;12.95;10.25;;;11.30;99.90;;;;;;5052109;28;20056;-75
2021/06/25 00:13:18;;;;;;;17.25;11.15;;;11.30;99.90;;;;;;5069551;28;20182;-77
2021/06/25 00:15:43;;;;;;;12.90;10.43;;;11.20;99.90;;;;;;5059903;28;20040;-76
2021/06/25 00:18:09;;;;;;;12.02;10.15;;;11.20;99.90;;;;;;5067739;28;20044;-78
2021/06/25 00:20:35;;;;;;;12.52;10.18;;;11.20;99.90;;;;;;5061342;28;20139;-77
2021/06/25 00:23:02;;;;;;;11.43;10.18;;;11.20;99.90;;;;;;5061546;28;20089;-77
2021/06/25 00:25:28;;;;;;;11.82;10.25;;;11.10;99.90;;;;;;5068532;28;20093;-76
2021/06/25 00:27:54;;;;;;;11.90;9.57;;;11.00;99.90;;;;;;5050416;28;20064;-80
2021/06/25 00:30:20;;;;;;;11.18;9.98;;;11.00;99.90;;;;;;5050105;28;20037;-79
2021/06/25 00:32:46;;;;;;;12.75;11.00;;;11.00;99.90;;;;;;5044543;28;20041;-79
2021/06/25 00:35:13;;;;;;;16.60;12.02;;;11.00;99.90;;;;;;5044039;28;20087;-79
2021/06/25 00:37:39;;;;;;;13.70;12.07;;;11.00;99.90;;;;;;5044283;28;20041;-77
2021/06/25 00:40:06;;;;;;;15.43;11.75;;;11.00;99.90;;;;;;5045714;28;20095;-79
2021/06/25 00:42:32;;;;;;;12.30;11.00;;;11.00;99.90;;;;;;5049801;28;20112;-78
2021/06/25 00:44:58;;;;;;;12.70;11.40;;;10.90;99.90;;;;;;5038270;28;20071;-77
2021/06/25 00:47:24;;;;;;;13.32;11.32;;;10.90;99.90;;;;;;5045755;28;20484;-77
2021/06/25 00:49:50;;;;;;;14.65;11.57;;;10.80;99.90;;;;;;5029488;28;20365;-77
2021/06/25 00:52:18;;;;;;;14.85;11.40;;;10.80;99.90;;;;;;5047805;28;20033;-75
2021/06/25 00:54:45;;;;;;;12.52;11.23;;;10.70;99.90;;;;;;5047187;28;20548;-79
2021/06/25 00:57:13;;;;;;;11.40;10.30;;;10.70;99.90;;;;;;5044315;28;20116;-77
2021/06/25 00:59:39;;;;;;;12.48;10.68;;;10.60;99.90;;;;;;5047863;28;20028;-79
2021/06/25 01:02:06;;;;;;;11.20;10.10;;;10.60;99.90;;;;;;5045260;28;20043;-78
2021/06/25 01:04:31;;;;;;;12.23;10.38;;;10.60;99.90;;;;;;5042119;28;20045;-78
2021/06/25 01:06:58;;;;;;;13.98;11.35;;;10.50;99.90;;;;;;5040208;28;20489;-79
2021/06/25 01:09:26;;;;;;;14.75;11.20;;;10.60;99.90;;;;;;5043196;28;20037;-78
2021/06/25 01:11:52;;;;;;;14.45;12.45;;;10.60;99.90;;;;;;5043581;28;20080;-78
2021/06/25 01:14:21;;;;;;;14.13;12.45;;;10.40;99.90;;;;;;5044966;28;20041;-79
2021/06/25 01:16:47;;;;;;;15.52;13.13;;;10.50;99.90;;;;;;5043187;28;20133;-79
2021/06/25 01:19:15;;;;;;;14.85;13.35;;;10.60;99.90;;;;;;5049305;28;20066;-79
2021/06/25 01:21:43;;;;;;;15.13;13.55;;;10.60;99.90;;;;;;5043770;28;20052;-79
2021/06/25 01:24:09;;;;;;;18.05;13.52;;;10.50;99.90;;;;;;5047254;28;20064;-79
2021/06/25 01:26:34;;;;;;;15.73;14.10;;;10.60;99.90;;;;;;5047674;28;20124;-78
2021/06/25 01:29:00;;;;;;;15.02;12.98;;;10.50;99.90;;;;;;5028965;28;20646;-78
2021/06/25 01:31:26;;;;;;;13.77;11.95;;;10.50;99.90;;;;;;5049425;28;20412;-78
2021/06/25 01:33:53;;;;;;;12.35;11.15;;;10.50;99.90;;;;;;5044110;28;20156;-79
2021/06/25 01:36:19;;;;;;;12.52;10.95;;;10.60;99.90;;;;;;5040598;28;20156;-79
2021/06/25 01:38:46;;;;;;;11.85;10.52;;;10.40;99.90;;;;;;5045036;28;20067;-78
2021/06/25 01:41:14;;;;;;;11.05;10.05;;;10.40;99.90;;;;;;5045874;28;20060;-79
2021/06/25 01:43:41;;;;;;;11.02;9.93;;;10.40;99.90;;;;;;5045790;28;20039;-79
2021/06/25 01:46:08;;;;;;;11.07;9.88;;;10.30;99.90;;;;;;5046835;28;20049;-79
2021/06/25 01:48:35;;;;;;;11.20;10.00;;;10.30;99.90;;;;;;5047611;28;20041;-79
2021/06/25 01:51:01;;;;;;;11.95;10.50;;;10.20;99.90;;;;;;5055911;28;20461;-79
2021/06/25 01:53:27;;;;;;;10.38;9.38;;;10.20;99.90;;;;;;5045836;28;20409;-79
2021/06/25 01:55:53;;;;;;;10.15;9.23;;;10.10;99.90;;;;;;5059141;28;20045;-79
2021/06/25 01:58:27;;;;;;;12.00;9.02;;;10.10;99.90;;;;;;5048644;28;20514;-79
2021/06/25 02:01:15;;;;;;;10.85;9.52;;;10.10;99.90;;;;;;5060325;28;20063;-79
2021/06/25 02:03:45;;;;;;;9.95;9.05;;;10.00;99.90;;;;;;5047412;28;20041;-79
2021/06/25 02:06:13;;;;;;;11.77;9.35;;;10.00;99.90;;;;;;5046252;28;20625;-79
2021/06/25 02:08:39;;;;;;;9.75;8.82;;;10.00;99.90;;;;;;5061991;28;20037;-78
2021/06/25 02:11:10;;;;;;;9.93;9.02;;;9.90;99.90;;;;;;5048394;28;20472;-78
2021/06/25 02:13:36;;;;;;;10.00;9.00;;;9.90;99.90;;;;;;5048531;28;20063;-79
2021/06/25 02:16:02;;;;;;;12.18;9.48;;;9.90;99.90;;;;;;5046871;28;20383;-78
2021/06/25 02:18:28;;;;;;;13.20;10.25;;;9.80;99.90;;;;;;5046950;28;20040;-79
2021/06/25 02:20:54;;;;;;;10.38;9.30;;;9.90;99.90;;;;;;5045580;28;20033;-78
2021/06/25 02:23:20;;;;;;;9.85;8.88;;;9.90;99.90;;;;;;5046286;28;20047;-79
2021/06/25 02:25:46;;;;;;;10.77;9.68;;;9.90;99.90;;;;;;5031399;28;20494;-78
2021/06/25 02:28:11;;;;;;;11.30;10.20;;;9.90;99.90;;;;;;5051855;28;20040;-79
2021/06/25 02:30:37;;;;;;;13.55;10.75;;;9.90;99.90;;;;;;5046242;28;20499;-78
2021/06/25 02:33:03;;;;;;;15.88;10.90;;;10.00;99.90;;;;;;5049173;28;20041;-79
2021/06/25 02:35:29;;;;;;;10.82;9.73;;;10.00;99.90;;;;;;5030141;28;20804;-79
2021/06/25 02:37:55;;;;;;;8.40;7.70;;;10.00;99.90;;;;;;5051516;28;20082;-79
2021/06/25 02:40:22;;;;;;;10.27;8.07;;;10.00;99.90;;;;;;5046923;28;20137;-79
2021/06/25 02:42:48;;;;;;;9.20;8.20;;;9.90;99.90;;;;;;5047642;28;20029;-78
2021/06/25 02:45:14;;;;;;;8.15;7.35;;;9.90;99.90;;;;;;5048199;28;20043;-78
2021/06/25 02:47:41;;;;;;;7.53;6.82;;;9.80;99.90;;;;;;5053212;28;20047;-79
2021/06/25 02:50:08;;;;;;;8.45;7.65;;;9.80;99.90;;;;;;5044536;28;20536;-79
2021/06/25 02:52:35;;;;;;;11.50;7.53;;;9.70;99.90;;;;;;5047173;28;20033;-78
2021/06/25 02:55:01;;;;;;;7.97;7.18;;;9.70;99.90;;;;;;5047909;28;20134;-79
2021/06/25 02:57:27;;;;;;;8.20;7.40;;;9.70;99.90;;;;;;5049534;28;20036;-78
2021/06/25 02:59:53;;;;;;;8.23;7.53;;;9.70;99.90;;;;;;5052931;28;20047;-79
2021/06/25 03:02:18;;;;;;;7.20;6.53;;;9.60;99.90;;;;;;5065448;28;20075;-79
2021/06/25 03:04:44;;;;;;;9.00;7.85;;;9.50;99.90;;;;;;5061701;28;20057;-78
2021/06/25 03:07:10;;;;;;;8.93;8.02;;;9.60;99.90;;;;;;5049082;28;20041;-79
2021/06/25 03:09:37;;;;;;;8.48;7.65;;;9.50;99.90;;;;;;5066358;28;20473;-79
2021/06/25 03:12:03;;;;;;;9.00;8.10;;;9.40;99.90;;;;;;5047598;28;20103;-79
2021/06/25 03:14:29;;;;;;;9.05;8.15;;;9.40;99.90;;;;;;5052184;28;20132;-79
2021/06/25 03:16:55;;;;;;;9.10;7.97;;;9.40;99.90;;;;;;5053472;28;20521;-79
2021/06/25 03:19:20;;;;;;;8.45;7.53;;;9.40;99.90;;;;;;5053295;28;20099;-79
2021/06/25 03:21:46;;;;;;;8.82;7.95;;;9.30;99.90;;;;;;5056453;28;20028;-79
2021/06/25 03:24:12;;;;;;;9.65;8.30;;;9.30;99.90;;;;;;5051327;28;20464;-79
2021/06/25 03:26:38;;;;;;;8.77;7.88;;;9.30;99.90;;;;;;5054686;28;20053;-80
2021/06/25 03:29:45;;;;;;;9.77;8.32;;;9.30;99.90;;;;;;5053989;28;20108;-80
2021/06/25 03:32:10;;;;;;;;;;;9.40;99.90;;;;;;5045346;28;20412;-79
2021/06/25 03:34:36;;;;;;;9.15;8.15;;;9.40;99.90;;;;;;5045033;28;19921;-78
2021/06/25 03:37:02;;;;;;;9.07;8.23;;;9.40;99.90;;;;;;5057738;28;20522;-79
2021/06/25 03:39:28;;;;;;;13.93;9.18;;;9.40;99.90;;;;;;5047109;28;20036;-78
2021/06/25 03:41:54;;;;;;;11.23;10.00;;;9.40;99.90;;;;;;5047613;28;20049;-79
2021/06/25 03:44:20;;;;;;;10.55;9.32;;;9.50;99.90;;;;;;5050660;28;20048;-78
2021/06/25 03:46:46;;;;;;;14.07;9.45;;;9.50;99.90;;;;;;5046021;28;20049;-79
2021/06/25 03:49:12;;;;;;;9.65;8.75;;;9.50;99.90;;;;;;5048657;28;20037;-79
2021/06/25 03:51:38;;;;;;;11.27;9.52;;;9.60;99.90;;;;;;5049772;28;20044;-78
2021/06/25 03:54:04;;;;;;;10.68;9.40;;;9.60;99.90;;;;;;5052063;28;20033;-78
2021/06/25 03:56:30;;;;;;;10.85;9.75;;;9.70;99.90;;;;;;5039430;28;20063;-79
2021/06/25 03:58:57;;;;;;;11.20;9.55;;;9.70;99.90;;;;;;5031985;28;20566;-78
2021/06/25 04:01:22;;;;;;;9.80;8.73;;;9.80;99.90;;;;;;5049302;28;20037;-79
2021/06/25 04:03:48;;;;;;;10.10;8.73;;;9.90;99.90;;;;;;5045067;28;20513;-79
2021/06/25 04:06:15;;;;;;;10.90;9.70;;;9.90;99.90;;;;;;5047903;28;20439;-79
2021/06/25 04:08:41;;;;;;;10.93;9.60;;;10.00;99.90;;;;;;5048667;28;20534;-78
2021/06/25 04:11:07;;;;;;;12.27;10.00;;;10.10;99.90;;;;;;5042497;28;20048;-79
2021/06/25 04:13:35;;;;;;;13.77;11.07;;;10.20;99.90;;;;;;5043932;28;20068;-78
2021/06/25 04:16:01;;;;;;;15.70;12.40;;;10.30;99.90;;;;;;5050562;28;20472;-79
2021/06/25 04:18:27;;;;;;;15.32;13.18;;;10.40;99.90;;;;;;5051122;28;20125;-79
2021/06/25 04:20:55;;;;;;;17.02;14.07;;;10.60;99.90;;;;;;5042798;28;20217;-79
2021/06/25 04:23:21;;;;;;;21.20;14.13;;;10.60;99.90;;;;;;5044171;28;20033;-79
2021/06/25 04:25:47;;;;;;;18.65;14.93;;;11.20;99.90;;;;;;5044594;28;20037;-79
2021/06/25 04:28:15;;;;;;;16.95;13.75;;;11.70;99.90;;;;;;5055332;28;20033;-79
2021/06/25 04:30:43;;;;;;;16.23;14.07;;;12.00;99.90;;;;;;5057299;28;20069;-79
2021/06/25 04:33:12;;;;;;;16.70;13.73;;;12.20;99.90;;;;;;5046950;28;20144;-79
2021/06/25 04:35:43;;;;;;;15.27;13.68;;;12.50;99.90;;;;;;5048547;28;20045;-79
2021/06/25 04:38:09;;;;;;;14.45;12.80;;;13.30;99.90;;;;;;5047766;28;20072;-77
2021/06/25 04:40:42;;;;;;;18.80;13.38;;;14.10;99.90;;;;;;5046813;28;20029;-77
2021/06/25 04:43:09;;;;;;;14.13;12.02;;;14.60;99.90;;;;;;5042288;28;20136;-76
2021/06/25 04:45:37;;;;;;;15.82;12.70;;;15.30;99.90;;;;;;5047931;28;20468;-77
2021/06/25 04:48:09;;;;;;;15.43;12.52;;;15.60;99.90;;;;;;5038882;28;20112;-77
2021/06/25 04:50:38;;;;;;;16.42;12.52;;;16.00;99.90;;;;;;5045832;28;20036;-77
2021/06/25 04:53:04;;;;;;;17.00;12.82;;;16.30;99.90;;;;;;5047909;28;20080;-77
2021/06/25 04:55:30;;;;;;;18.33;12.88;;;16.40;99.90;;;;;;5048294;28;20378;-77
2021/06/25 04:57:56;;;;;;;17.35;12.88;;;16.60;99.90;;;;;;5042386;28;20037;-77
2021/06/25 05:00:24;;;;;;;18.77;12.50;;;16.80;99.90;;;;;;5023903;28;20044;-77
2021/06/25 05:02:53;;;;;;;16.13;12.80;;;17.00;99.90;;;;;;5044124;28;20037;-76
2021/06/25 05:05:24;;;;;;;16.77;13.05;;;16.10;99.90;;;;;;5026409;28;20045;-76
2021/06/25 05:07:50;;;;;;;14.35;12.27;;;15.30;99.90;;;;;;5047330;28;20071;-77
2021/06/25 05:10:16;;;;;;;19.13;12.88;;;14.80;99.90;;;;;;5045209;28;20371;-76
2021/06/25 05:12:42;;;;;;;18.20;12.98;;;14.40;99.90;;;;;;5047996;28;20056;-76
2021/06/25 05:15:08;;;;;;;14.93;12.57;;;14.00;99.90;;;;;;5044449;28;22318;-76
2021/06/25 05:17:34;;;;;;;13.10;11.85;;;13.80;99.90;;;;;;5044164;28;20052;-76
2021/06/25 05:20:00;;;;;;;13.68;12.35;;;13.70;99.90;;;;;;5041722;28;20059;-76
2021/06/25 05:22:28;;;;;;;14.75;12.10;;;13.60;99.90;;;;;;5042985;28;20041;-76
2021/06/25 05:24:54;;;;;;;14.20;12.18;;;13.60;99.90;;;;;;5043884;28;20048;-76
2021/06/25 05:27:19;;;;;;;14.02;12.40;;;13.60;99.90;;;;;;5044913;28;20407;-77
2021/06/25 05:29:45;;;;;;;17.92;12.73;;;13.60;99.90;;;;;;5047636;28;20187;-77
2021/06/25 05:32:11;;;;;;;14.18;12.43;;;13.60;99.90;;;;;;5046448;28;20142;-77
2021/06/25 05:34:37;;;;;;;13.98;12.13;;;13.50;99.90;;;;;;5060982;28;20346;-77
2021/06/25 05:37:03;;;;;;;15.55;12.40;;;13.60;99.90;;;;;;5043376;28;20076;-79
2021/06/25 05:39:28;;;;;;;14.07;12.57;;;13.60;99.90;;;;;;5051160;28;20033;-77
2021/06/25 05:41:54;;;;;;;15.93;13.18;;;13.70;99.90;;;;;;5049351;28;20049;-76
2021/06/25 05:44:20;;;;;;;18.83;14.35;;;13.70;99.90;;;;;;5050873;28;20412;-76
2021/06/25 05:46:46;;;;;;;16.02;13.80;;;13.80;99.90;;;;;;5050191;28;20112;-77
2021/06/25 05:49:11;;;;;;;18.55;13.93;;;13.90;99.90;;;;;;5025361;28;20044;-78
2021/06/25 05:51:37;;;;;;;19.08;14.38;;;14.00;99.90;;;;;;5045845;28;20550;-76
2021/06/25 05:54:03;;;;;;;21.98;15.40;;;14.10;99.90;;;;;;5039246;28;20519;-76
2021/06/25 05:56:29;;;;;;;17.80;14.60;;;14.10;99.90;;;;;;5048031;28;20071;-77
2021/06/25 05:58:55;;;;;;;16.02;14.23;;;14.20;99.90;;;;;;5049036;28;20041;-73
2021/06/25 06:01:21;;;;;;;16.65;14.55;;;14.10;99.90;;;;;;5045932;28;20053;-74
2021/06/25 06:03:47;;;;;;;19.15;14.23;;;14.20;99.90;;;;;;5052540;28;20314;-73
2021/06/25 06:06:12;;;;;;;16.63;14.93;;;14.20;99.90;;;;;;5050729;28;20086;-76
2021/06/25 06:08:38;;;;;;;18.63;15.27;;;14.20;99.90;;;;;;5049731;28;20029;-77
2021/06/25 06:11:05;;;;;;;16.92;15.23;;;14.30;99.90;;;;;;5052656;28;20045;-76
2021/06/25 06:13:31;;;;;;;18.00;14.40;;;14.30;99.90;;;;;;5049120;28;20051;-75
2021/06/25 06:15:57;;;;;;;17.25;14.55;;;14.40;99.90;;;;;;5048851;28;20492;-76
2021/06/25 06:18:28;;;;;;;16.30;14.15;;;14.40;99.90;;;;;;5032857;28;20488;-77
2021/06/25 06:20:54;;;;;;;16.52;14.80;;;14.60;99.90;;;;;;5049439;28;20047;-76
2021/06/25 06:31:34;;;;;;;16.92;14.70;;;15.20;99.90;;;;;;5044720;28;20546;-76
2021/06/25 06:34:11;;;;;;;18.70;14.85;;;15.30;99.90;;;;;;5049519;28;20064;-77
2021/06/25 06:36:55;;;;;;;17.05;13.77;;;15.40;99.90;;;;;;5052798;28;20053;-76
2021/06/25 06:39:21;;;;;;;21.60;14.02;;;15.50;99.90;;;;;;5051549;28;20108;-76
2021/06/25 06:41:47;;;;;;;16.55;13.98;;;15.60;99.90;;;;;;5050487;28;20140;-76
2021/06/25 06:44:13;;;;;;;15.82;13.95;;;15.70;99.90;;;;;;5061680;28;20461;-75
2021/06/25 06:46:39;;;;;;;16.63;12.80;;;15.70;99.90;;;;;;5051076;28;20059;-76
2021/06/25 06:49:05;;;;;;;15.00;13.40;;;15.70;99.90;;;;;;5051516;28;20064;-73
2021/06/25 06:51:31;;;;;;;15.75;13.68;;;15.80;99.90;;;;;;5047535;28;20116;-74
2021/06/25 06:53:57;;;;;;;15.82;12.90;;;15.90;99.90;;;;;;5053493;28;20132;-74
2021/06/25 06:56:24;;;;;;;16.30;12.63;;;16.00;99.90;;;;;;5047849;28;20195;-79
2021/06/25 06:58:52;;;;;;;14.68;13.05;;;16.00;99.90;;;;;;5068217;28;20045;-77
2021/06/25 07:01:18;;;;;;;16.38;13.50;;;16.10;99.90;;;;;;5051500;28;20040;-76
2021/06/25 07:03:44;;;;;;;15.45;11.90;;;16.20;99.90;;;;;;5052817;28;20045;-75
2021/06/25 07:06:10;;;;;;;16.45;12.82;;;16.20;99.90;;;;;;5051118;28;20053;-77
2021/06/25 07:08:36;;;;;;;15.65;12.68;;;16.20;99.90;;;;;;5050462;28;20056;-75
2021/06/25 07:11:02;;;;;;;16.33;12.25;;;16.20;99.90;;;;;;5057036;28;20539;-76
2021/06/25 07:13:28;;;;;;;20.55;12.50;;;16.30;99.90;;;;;;5074310;28;20055;-78
2021/06/25 07:15:55;;;;;;;13.57;12.18;;;16.30;99.90;;;;;;5061776;28;20037;-78
2021/06/25 07:18:21;;;;;;;14.35;11.90;;;16.40;99.90;;;;;;5052338;28;20146;-78
2021/06/25 07:20:47;;;;;;;17.08;11.48;;;16.40;99.90;;;;;;5053168;28;20052;-76
2021/06/25 07:23:13;;;;;;;13.68;11.23;;;16.50;99.90;;;;;;5056812;28;20044;-75
2021/06/25 07:25:39;;;;;;;14.52;10.70;;;16.50;99.90;;;;;;5067369;28;20465;-77
2021/06/25 07:28:05;;;;;;;11.57;10.38;;;16.50;99.90;;;;;;5038082;28;20122;-77
2021/06/25 07:30:31;;;;;;;14.00;10.38;;;16.60;99.90;;;;;;5070127;28;20085;-76
2021/06/25 07:32:58;;;;;;;14.98;9.98;;;16.60;99.90;;;;;;5073895;28;20238;-77
2021/06/25 07:35:24;;;;;;;11.02;9.02;;;16.70;99.90;;;;;;5070317;28;20060;-78
2021/06/25 07:37:50;;;;;;;10.30;8.30;;;16.80;99.90;;;;;;5056160;28;20075;-76
2021/06/25 07:40:16;;;;;;;13.43;8.98;;;17.00;99.90;;;;;;5058065;28;20048;-76
2021/06/25 07:42:43;;;;;;;9.45;8.35;;;17.10;99.90;;;;;;5053815;28;20071;-77
2021/06/25 07:45:10;;;;;;;9.95;7.55;;;17.30;99.90;;;;;;5052734;28;20108;-76
2021/06/25 07:47:38;;;;;;;11.40;7.55;;;17.50;99.90;;;;;;5050284;28;20037;-78
2021/06/25 07:50:06;;;;;;;8.80;6.97;;;17.80;99.90;;;;;;5048135;28;20106;-79
2021/06/25 07:52:32;;;;;;;9.73;7.75;;;18.00;99.90;;;;;;5057797;28;20090;-80
2021/06/25 07:55:19;;;;;;;9.93;7.85;;;18.20;99.90;;;;;;5046858;28;20067;-79
2021/06/25 07:57:45;;;;;;;11.40;7.88;;;18.50;99.90;;;;;;5050631;28;20113;-77
2021/06/25 08:00:12;;;;;;;8.45;7.05;;;18.60;99.90;;;;;;5050755;28;20041;-77
2021/06/25 08:02:38;;;;;;;10.35;7.20;;;18.70;99.90;;;;;;5062122;28;20060;-77
2021/06/25 08:05:05;;;;;;;8.88;6.63;;;18.80;99.90;;;;;;5053960;28;20066;-76
2021/06/25 08:07:31;;;;;;;10.65;6.30;;;18.90;99.90;;;;;;5035184;28;20048;-80
2021/06/25 08:09:57;;;;;;;10.05;6.15;;;18.90;99.90;;;;;;5051909;28;20087;-80
2021/06/25 08:12:25;;;;;;;10.05;7.00;;;19.00;99.90;;;;;;5059645;28;20062;-77
2021/06/25 08:14:51;;;;;;;9.55;6.55;;;19.30;99.90;;;;;;5063844;28;20060;-79
2021/06/25 08:17:17;;;;;;;8.30;6.72;;;19.40;99.90;;;;;;5052254;28;20496;-79
2021/06/25 08:19:43;;;;;;;8.32;6.68;;;19.50;99.90;;;;;;5049937;28;20071;-80
2021/06/25 08:22:08;;;;;;;8.45;6.15;;;19.50;99.90;;;;;;5043057;28;20076;-78
2021/06/25 08:24:34;;;;;;;11.68;6.15;;;19.60;99.90;;;;;;5044339;28;20057;-79
2021/06/25 08:27:01;;;;;;;9.50;6.85;;;19.60;99.90;;;;;;5049972;28;20091;-78
2021/06/25 08:29:28;;;;;;;10.38;6.22;;;19.60;99.90;;;;;;5050494;28;20375;-79
2021/06/25 08:31:54;;;;;;;7.63;5.85;;;19.60;99.90;;;;;;5070142;28;20049;-76
2021/06/25 08:34:20;;;;;;;10.13;5.22;;;19.60;99.90;;;;;;5050353;28;20452;-78
2021/06/25 08:36:46;;;;;;;10.85;5.05;;;19.60;99.90;;;;;;5050351;28;20055;-76
2021/06/25 08:39:11;;;;;;;7.82;4.68;;;19.60;99.90;;;;;;5049949;28;20036;-77
2021/06/25 08:41:38;;;;;;;10.30;4.40;;;19.50;99.90;;;;;;5064999;28;20053;-78
2021/06/25 08:44:06;;;;;;;5.22;3.42;;;19.40;99.90;;;;;;5028744;28;20057;-79
2021/06/25 08:46:33;;;;;;;6.07;3.90;;;19.50;99.90;;;;;;5045827;28;20249;-77
2021/06/25 08:49:04;;;;;;;8.98;3.97;;;19.40;99.90;;;;;;5049845;28;20041;-77
2021/06/25 08:51:33;;;;;;;5.65;3.97;;;19.30;99.90;;;;;;5046154;28;20056;-80
2021/06/25 08:54:19;;;;;;;5.47;3.92;;;19.30;99.90;;;;;;5046640;28;20056;-78
2021/06/25 08:56:45;;;;;;;6.43;4.03;;;19.30;99.90;;;;;;5047932;28;20032;-78
2021/06/25 08:59:18;;;;;;;7.55;4.20;;;19.30;99.90;;;;;;5049732;28;20447;-77
2021/06/25 09:01:44;;;;;;;8.13;4.10;;;19.40;99.90;;;;;;5058082;28;20032;-79
2021/06/25 09:04:29;;;;;;;5.95;4.05;;;19.50;99.90;;;;;;5050442;28;20478;-77
2021/06/25 09:06:57;;;;;;;8.63;4.47;;;19.60;99.90;;;;;;5049446;28;20045;-80
2021/06/25 09:09:22;;;;;;;6.75;5.10;;;19.70;99.90;;;;;;5048812;28;20043;-78
2021/06/25 09:12:23;;;;;;;7.95;4.72;;;19.70;99.90;;;;;;5048384;28;20425;-77
2021/06/25 09:15:11;;;;;;;6.45;4.47;;;19.80;99.90;;;;;;5046410;28;20082;-76
2021/06/25 09:17:53;;;;;;;7.05;4.00;;;19.90;99.90;;;;;;5047382;28;20044;-77
2021/06/25 09:20:32;;;;;;;9.23;4.57;;;20.20;99.90;;;;;;5055478;28;20073;-76
2021/06/25 09:22:58;;;;;;;8.23;4.85;;;20.20;99.90;;;;;;5045545;28;20099;-77
2021/06/25 09:25:25;;;;;;;7.30;4.72;;;20.20;99.90;;;;;;5049311;28;20045;-76
2021/06/25 09:27:56;;;;;;;8.07;5.03;;;20.20;99.90;;;;;;5066443;28;20098;-76
2021/06/25 09:30:24;;;;;;;9.20;5.50;;;20.20;99.90;;;;;;5065061;28;20145;-78
2021/06/25 09:32:51;;;;;;;7.57;5.30;;;20.10;99.90;;;;;;5032850;28;20069;-79
2021/06/25 09:35:22;;;;;;;13.18;5.00;;;20.00;99.90;;;;;;5049520;28;20490;-79
2021/06/25 09:37:51;;;;;;;6.88;4.88;;;19.90;99.90;;;;;;5071636;28;20081;-79
2021/06/25 09:40:18;;;;;;;11.38;5.63;;;19.80;99.90;;;;;;5058766;28;20048;-79
2021/06/25 09:42:46;;;;;;;10.85;5.18;;;19.80;99.90;;;;;;5055813;28;20124;-79
2021/06/25 09:45:15;;;;;;;18.83;6.05;;;19.80;99.90;;;;;;5072524;28;20115;-79
2021/06/25 09:47:52;;;;;;;7.28;5.68;;;19.80;99.90;;;;;;5051492;28;20048;-79
2021/06/25 09:50:18;;;;;;;9.02;5.40;;;19.80;99.90;;;;;;5068181;28;20056;-76
2021/06/25 09:52:58;;;;;;;7.82;3.60;;;19.80;99.90;;;;;;5062547;28;20032;-77
2021/06/25 09:55:29;;;;;;;9.00;4.38;;;19.90;99.90;;;;;;5064294;28;20040;-78
2021/06/25 10:03:39;;;;;;;8.90;4.25;;;20.70;99.90;;;;;;5057038;28;20417;-78
2021/06/25 10:06:13;;;;;;;8.93;5.57;;;20.90;99.90;;;;;;5051726;28;20073;-79
2021/06/25 10:08:40;;;;;;;9.13;4.55;;;20.90;99.90;;;;;;5073636;28;20045;-79
2021/06/25 10:11:07;;;;;;;7.53;5.97;;;20.90;99.90;;;;;;5061973;28;20053;-79
2021/06/25 10:13:34;;;;;;;10.45;5.47;;;20.90;99.90;;;;;;5054935;28;20059;-79
2021/06/25 10:16:00;;;;;;;14.57;6.07;;;21.00;99.90;;;;;;5050519;28;20053;-78
2021/06/25 10:18:29;;;;;;;11.77;5.32;;;21.10;99.90;;;;;;5055671;28;20037;-79
2021/06/25 10:20:56;;;;;;;9.18;4.90;;;21.30;99.90;;;;;;5054481;28;20140;-81
2021/06/25 10:23:24;;;;;;;13.65;6.80;;;21.40;99.90;;;;;;5069963;28;20053;-77
2021/06/25 10:25:51;;;;;;;8.75;7.32;;;21.50;99.90;;;;;;5054960;28;20136;-77
2021/06/25 10:28:18;;;;;;;11.23;7.47;;;21.50;99.90;;;;;;5055007;28;20025;-80
2021/06/25 10:30:47;;;;;;;9.50;7.20;;;21.60;99.90;;;;;;5055854;28;20110;-79
2021/06/25 10:33:14;;;;;;;9.05;6.55;;;21.70;99.90;;;;;;5054451;28;20485;-78
2021/06/25 10:35:43;;;;;;;12.00;7.65;;;21.90;99.90;;;;;;5054473;28;20111;-80
2021/06/25 10:38:08;;;;;;;7.80;6.38;;;22.00;99.90;;;;;;5073321;28;20095;-80
2021/06/25 10:40:35;;;;;;;11.98;8.90;;;22.10;99.90;;;;;;5056830;28;20045;-80
2021/06/25 10:43:02;;;;;;;12.80;8.50;;;22.20;99.90;;;;;;5058849;28;20037;-79
2021/06/25 10:45:43;;;;;;;11.75;8.57;;;21.90;99.90;;;;;;5051907;28;20053;-81
2021/06/25 10:48:09;;;;;;;10.88;8.23;;;22.30;99.90;;;;;;5050534;28;20072;-81
2021/06/25 10:50:36;;;;;;;13.90;9.25;;;22.30;99.90;;;;;;5048907;28;20029;-77
2021/06/25 10:53:14;;;;;;;9.35;8.18;;;22.10;99.90;;;;;;5056142;28;20037;-76
2021/06/25 10:55:47;;;;;;;10.07;7.68;;;22.30;99.90;;;;;;5053004;28;20139;-79
2021/06/25 10:58:24;;;;;;;13.85;8.25;;;22.20;99.90;;;;;;5050359;28;20512;-80
2021/06/25 11:00:56;;;;;;;11.43;7.43;;;22.20;99.90;;;;;;5065165;28;20059;-77
2021/06/25 11:03:43;;;;;;;11.63;7.40;;;22.40;99.90;;;;;;5033142;28;20065;-80
2021/06/25 11:06:35;;;;;;;10.55;8.82;;;22.20;99.90;;;;;;5052750;28;20406;-79
2021/06/25 11:09:06;;;;;;;16.27;9.23;;;22.30;99.80;;;;;;5052695;28;20068;-77
2021/06/25 11:11:32;;;;;;;13.07;8.65;;;22.30;99.90;;;;;;5025690;28;20098;-80
2021/06/25 11:13:58;;;;;;;15.05;8.80;;;22.50;99.90;;;;;;5050499;28;20035;-78
2021/06/25 11:16:25;;;;;;;14.32;9.57;;;22.60;99.90;;;;;;5069398;28;20049;-79
2021/06/25 11:18:51;;;;;;;11.75;9.40;;;22.80;99.90;;;;;;5053404;28;20032;-80
2021/06/25 11:21:17;;;;;;;13.68;9.27;;;23.00;99.90;;;;;;5058723;28;20048;-79
2021/06/25 11:23:45;;;;;;;13.52;9.10;;;23.20;99.90;;;;;;5051833;28;20469;-78
2021/06/25 11:26:17;;;;;;;11.65;8.70;;;23.40;99.20;;;;;;5065752;28;20412;-79
2021/06/25 11:28:47;;;;;;;12.77;9.23;;;23.50;99.00;;;;;;5072604;28;20040;-79
2021/06/25 11:31:13;;;;;;;11.13;9.13;;;23.70;99.00;;;;;;5072349;28;20109;-79
2021/06/25 11:33:55;;;;;;;10.80;8.90;;;23.80;98.70;;;;;;5073203;28;20032;-79
2021/06/25 11:36:39;;;;;;;12.02;8.82;;;23.70;98.00;;;;;;5056388;28;20053;-79
2021/06/25 11:39:12;;;;;;;11.38;8.73;;;23.90;97.70;;;;;;5070619;28;20128;-79
2021/06/25 11:42:11;;;;;;;11.00;8.43;;;23.70;98.00;;;;;;5063606;28;20049;-79
2021/06/25 11:44:44;;;;;;;10.32;8.40;;;23.80;98.40;;;;;;5033850;28;20044;-79
2021/06/25 11:47:18;;;;;;;12.10;8.52;;;23.80;98.70;;;;;;5054494;28;20155;-79
2021/06/25 11:52:24;;;;;;;12.88;8.93;;;24.00;97.50;;;;;;5048250;28;20036;-80
2021/06/25 11:54:58;;;;;;;15.20;11.00;;;24.20;97.90;;;;;;5054392;28;20093;-77
2021/06/25 11:57:29;;;;;;;14.82;11.30;;;24.70;97.10;;;;;;5049232;28;20434;-79
2021/06/25 12:00:08;;;;;;;18.35;12.18;;;24.60;97.30;;;;;;5051554;28;20120;-77
2021/06/25 12:02:47;;;;;;;17.52;11.30;;;24.40;97.00;;;;;;5052269;28;20464;-76
2021/06/25 12:05:15;;;;;;;15.50;10.68;;;24.20;97.70;;;;;;5053227;28;20052;-77
2021/06/25 12:07:41;;;;;;;13.45;11.20;;;24.20;98.10;;;;;;5056390;28;20928;-77
2021/06/25 12:10:08;;;;;;;17.98;12.20;;;24.00;98.30;;;;;;5052283;28;20471;-79
2021/06/25 12:12:37;;;;;;;19.85;13.80;;;23.80;98.70;;;;;;5050604;28;20450;-77
2021/06/25 12:15:08;;;;;;;16.38;13.43;;;23.60;98.70;;;;;;5050609;28;20064;-77
2021/06/25 12:17:51;;;;;;;19.63;14.02;;;23.30;99.50;;;;;;5062567;28;20039;-81
2021/06/25 12:20:30;;;;;;;19.25;14.10;;;23.00;99.30;;;;;;5058075;28;20124;-81
2021/06/25 12:23:05;;;;;;;19.42;13.05;;;22.80;99.20;;;;;;5046557;28;20052;-79
2021/06/25 12:25:50;;;;;;;14.45;12.27;;;22.80;99.90;;;;;;5046130;28;20127;-79
2021/06/25 12:28:21;;;;;;;17.13;12.80;;;22.80;99.90;;;;;;5050379;28;20029;-82
2021/06/25 12:30:47;;;;;;;20.25;12.73;;;22.90;99.90;;;;;;5053202;28;20571;-80
2021/06/25 12:33:14;;;;;;;18.13;13.93;;;23.00;99.90;;;;;;5028975;28;20048;-79
2021/06/25 12:35:45;;;;;;;19.58;14.40;;;23.00;99.90;;;;;;5048088;28;20044;-79
2021/06/25 12:38:13;;;;;;;20.15;14.82;;;23.00;99.90;;;;;;5045929;28;20041;-79
2021/06/25 12:40:40;;;;;;;20.30;15.30;;;23.10;99.90;;;;;;5050181;28;20051;-79
2021/06/25 12:43:07;;;;;;;20.35;15.15;;;23.00;99.90;;;;;;5049468;28;20040;-78
2021/06/25 12:45:48;;;;;;;21.10;15.82;;;23.00;99.90;;;;;;5049150;28;20476;-80
2021/06/25 12:48:15;;;;;;;19.15;15.85;;;22.90;99.90;;;;;;5044152;28;20048;-79
2021/06/25 12:50:42;;;;;;;20.75;16.27;;;22.90;99.90;;;;;;5047792;28;20033;-79
2021/06/25 12:53:19;;;;;;;22.73;16.75;;;23.00;99.90;;;;;;5047917;28;20522;-78
2021/06/25 12:55:46;;;;;;;19.98;16.15;;;23.10;99.90;;;;;;5049496;28;20571;-80
2021/06/25 12:58:14;;;;;;;22.02;16.10;;;23.10;99.90;;;;;;5050745;28;20048;-79